sensor_id;sensor_type;location;lat;lon;timestamp;temperature;humidity
16907;DHT22;8570;52.380;4.654;2022-10-30T00:02:01;15.90;99.90
16907;DHT22;8570;52.380;4.654;2022-10-30T00:07:03;15.80;99.90
16907;DHT22;8570;52.380;4.654;2022-10-30T00:12:06;15.80;99.90
16907;DHT22;8570;52.380;4.654;2022-10-30T00:17:08;15.80;99.90
16907;DHT22;8570;52.380;4.654;2022-10-30T00:22:11;15.70;99.90
16907;DHT22;8570;52.380;4.654;2022-10-30T00:27:14;15.70;99.90
16907;DHT22;8570;52.380;4.654;2022-10-30T00:32:16;15.70;99.90
16907;DHT22;8570;52.380;4.654;2022-10-30T00:37:18;15.60;99.90
16907;DHT22;8570;52.380;4.654;2022-10-30T00:42:21;15.60;99.90
16907;DHT22;8570;52.380;4.654;2022-10-30T00:47:25;15.50;99.90
16907;DHT22;8570;52.380;4.654;2022-10-30T00:52:30;15.50;99.90
16907;DHT22;8570;52.380;4.654;2022-10-30T00:57:34;15.50;99.90
16907;DHT22;8570;52.380;4.654;2022-10-30T01:02:38;15.40;99.90
16907;DHT22;8570;52.380;4.654;2022-10-30T01:07:40;15.40;99.90
16907;DHT22;8570;52.380;4.654;2022-10-30T01:12:44;15.30;99.90
16907;DHT22;8570;52.380;4.654;2022-10-30T01:18:13;15.30;99.90
16907;DHT22;8570;52.380;4.654;2022-10-30T01:23:27;15.20;99.90
16907;DHT22;8570;52.380;4.654;2022-10-30T01:28:46;15.20;99.90
16907;DHT22;8570;52.380;4.654;2022-10-30T01:33:59;15.20;99.90
16907;DHT22;8570;52.380;4.654;2022-10-30T01:44:13;15.10;99.90
16907;DHT22;8570;52.380;4.654;2022-10-30T01:49:41;15.10;99.90
16907;DHT22;8570;52.380;4.654;2022-10-30T01:54:52;15.00;99.90
16907;DHT22;8570;52.380;4.654;2022-10-30T02:00:00;15.00;99.90
16907;DHT22;8570;52.380;4.654;2022-10-30T02:05:04;14.90;99.90
16907;DHT22;8570;52.380;4.654;2022-10-30T02:10:09;14.90;99.90
16907;DHT22;8570;52.380;4.654;2022-10-30T02:15:13;14.80;99.90
16907;DHT22;8570;52.380;4.654;2022-10-30T02:20:17;14.80;99.90
16907;DHT22;8570;52.380;4.654;2022-10-30T02:25:19;14.70;99.90
16907;DHT22;8570;52.380;4.654;2022-10-30T02:30:21;14.70;99.90
16907;DHT22;8570;52.380;4.654;2022-10-30T02:35:24;14.70;99.90
16907;DHT22;8570;52.380;4.654;2022-10-30T02:40:26;14.70;99.90
16907;DHT22;8570;52.380;4.654;2022-10-30T02:45:28;14.60;99.90
16907;DHT22;8570;52.380;4.654;2022-10-30T02:50:31;14.60;99.90
16907;DHT22;8570;52.380;4.654;2022-10-30T02:55:33;14.60;99.90
16907;DHT22;8570;52.380;4.654;2022-10-30T03:00:35;14.60;99.90
16907;DHT22;8570;52.380;4.654;2022-10-30T03:05:38;14.50;99.90
16907;DHT22;8570;52.380;4.654;2022-10-30T03:10:40;14.50;99.90
16907;DHT22;8570;52.380;4.654;2022-10-30T03:15:42;14.50;99.90
16907;DHT22;8570;52.380;4.654;2022-10-30T03:20:45;14.50;99.90
16907;DHT22;8570;52.380;4.654;2022-10-30T03:25:47;14.40;99.90
16907;DHT22;8570;52.380;4.654;2022-10-30T03:30:57;14.40;99.90
16907;DHT22;8570;52.380;4.654;2022-10-30T03:36:01;14.40;99.90
16907;DHT22;8570;52.380;4.654;2022-10-30T03:41:04;14.30;99.90
16907;DHT22;8570;52.380;4.654;2022-10-30T03:46:08;14.30;99.90
16907;DHT22;8570;52.380;4.654;2022-10-30T03:51:12;14.30;99.90
16907;DHT22;8570;52.380;4.654;2022-10-30T03:56:13;14.20;99.90
16907;DHT22;8570;52.380;4.654;2022-10-30T04:01:15;14.20;99.90
16907;DHT22;8570;52.380;4.654;2022-10-30T04:06:18;14.10;99.90
16907;DHT22;8570;52.380;4.654;2022-10-30T04:11:20;14.10;99.90
16907;DHT22;8570;52.380;4.654;2022-10-30T04:16:22;14.10;99.90
16907;DHT22;8570;52.380;4.654;2022-10-30T04:21:25;14.00;99.90
16907;DHT22;8570;52.380;4.654;2022-10-30T04:26:27;14.00;99.90
16907;DHT22;8570;52.380;4.654;2022-10-30T04:31:29;13.90;99.90
16907;DHT22;8570;52.380;4.654;2022-10-30T04:36:32;13.90;99.90
16907;DHT22;8570;52.380;4.654;2022-10-30T04:41:34;13.80;99.90
16907;DHT22;8570;52.380;4.654;2022-10-30T04:46:36;13.80;99.90
16907;DHT22;8570;52.380;4.654;2022-10-30T04:51:39;13.80;99.90
16907;DHT22;8570;52.380;4.654;2022-10-30T05:01:43;13.70;99.90
16907;DHT22;8570;52.380;4.654;2022-10-30T05:06:47;13.70;99.90
16907;DHT22;8570;52.380;4.654;2022-10-30T05:11:48;13.70;99.90
16907;DHT22;8570;52.380;4.654;2022-10-30T05:16:50;13.70;99.90
16907;DHT22;8570;52.380;4.654;2022-10-30T05:21:53;13.70;99.90
16907;DHT22;8570;52.380;4.654;2022-10-30T05:26:57;13.60;99.90
16907;DHT22;8570;52.380;4.654;2022-10-30T05:31:59;13.60;99.90
16907;DHT22;8570;52.380;4.654;2022-10-30T05:37:02;13.60;99.90
16907;DHT22;8570;52.380;4.654;2022-10-30T05:42:04;13.50;99.90
16907;DHT22;8570;52.380;4.654;2022-10-30T05:47:06;13.50;99.90
16907;DHT22;8570;52.380;4.654;2022-10-30T05:52:09;13.50;99.90
16907;DHT22;8570;52.380;4.654;2022-10-30T05:57:11;13.50;99.90
16907;DHT22;8570;52.380;4.654;2022-10-30T06:02:13;13.50;99.90
16907;DHT22;8570;52.380;4.654;2022-10-30T06:07:18;13.50;99.90
16907;DHT22;8570;52.380;4.654;2022-10-30T06:12:20;13.40;99.90
16907;DHT22;8570;52.380;4.654;2022-10-30T06:17:22;13.40;99.90
16907;DHT22;8570;52.380;4.654;2022-10-30T06:22:25;13.40;99.90
16907;DHT22;8570;52.380;4.654;2022-10-30T06:27:27;13.40;99.90
16907;DHT22;8570;52.380;4.654;2022-10-30T06:32:29;13.30;99.90
16907;DHT22;8570;52.380;4.654;2022-10-30T06:37:32;13.30;99.90
16907;DHT22;8570;52.380;4.654;2022-10-30T06:42:41;13.30;99.90
16907;DHT22;8570;52.380;4.654;2022-10-30T06:47:43;13.30;99.90
16907;DHT22;8570;52.380;4.654;2022-10-30T06:52:49;13.30;99.90
16907;DHT22;8570;52.380;4.654;2022-10-30T06:57:56;13.30;99.90
16907;DHT22;8570;52.380;4.654;2022-10-30T07:02:58;13.20;99.90
16907;DHT22;8570;52.380;4.654;2022-10-30T07:08:02;13.20;99.90
16907;DHT22;8570;52.380;4.654;2022-10-30T07:13:04;13.30;99.90
16907;DHT22;8570;52.380;4.654;2022-10-30T07:18:06;13.30;99.90
16907;DHT22;8570;52.380;4.654;2022-10-30T07:23:09;13.30;99.90
16907;DHT22;8570;52.380;4.654;2022-10-30T07:28:11;13.40;99.90
16907;DHT22;8570;52.380;4.654;2022-10-30T07:33:13;13.40;99.90
16907;DHT22;8570;52.380;4.654;2022-10-30T07:38:16;13.50;99.90
16907;DHT22;8570;52.380;4.654;2022-10-30T07:43:18;13.50;99.90
16907;DHT22;8570;52.380;4.654;2022-10-30T07:48:20;13.60;99.90
16907;DHT22;8570;52.380;4.654;2022-10-30T07:53:23;13.70;99.90
16907;DHT22;8570;52.380;4.654;2022-10-30T07:58:25;13.70;99.90
16907;DHT22;8570;52.380;4.654;2022-10-30T08:03:27;13.80;99.90
16907;DHT22;8570;52.380;4.654;2022-10-30T08:08:30;13.90;99.90
16907;DHT22;8570;52.380;4.654;2022-10-30T08:13:32;14.00;99.90
16907;DHT22;8570;52.380;4.654;2022-10-30T08:18:34;14.10;99.90
16907;DHT22;8570;52.380;4.654;2022-10-30T08:23:37;14.20;99.90
16907;DHT22;8570;52.380;4.654;2022-10-30T08:28:39;14.40;99.90
16907;DHT22;8570;52.380;4.654;2022-10-30T08:33:41;14.50;99.90
16907;DHT22;8570;52.380;4.654;2022-10-30T08:38:44;14.70;99.90
16907;DHT22;8570;52.380;4.654;2022-10-30T08:43:46;14.80;99.90
16907;DHT22;8570;52.380;4.654;2022-10-30T08:48:47;15.00;99.90
16907;DHT22;8570;52.380;4.654;2022-10-30T08:53:51;15.10;99.90
16907;DHT22;8570;52.380;4.654;2022-10-30T08:58:52;15.20;99.90
16907;DHT22;8570;52.380;4.654;2022-10-30T09:03:54;15.30;99.90
16907;DHT22;8570;52.380;4.654;2022-10-30T09:08:57;15.40;99.90
16907;DHT22;8570;52.380;4.654;2022-10-30T09:13:59;15.50;99.90
16907;DHT22;8570;52.380;4.654;2022-10-30T09:19:01;15.60;99.90
16907;DHT22;8570;52.380;4.654;2022-10-30T09:24:05;15.70;99.90
16907;DHT22;8570;52.380;4.654;2022-10-30T09:29:07;15.80;99.90
16907;DHT22;8570;52.380;4.654;2022-10-30T09:34:09;15.90;99.90
16907;DHT22;8570;52.380;4.654;2022-10-30T09:39:12;16.10;99.90
16907;DHT22;8570;52.380;4.654;2022-10-30T09:44:23;16.40;99.90
16907;DHT22;8570;52.380;4.654;2022-10-30T09:49:53;16.80;99.90
16907;DHT22;8570;52.380;4.654;2022-10-30T09:55:21;17.20;99.90
16907;DHT22;8570;52.380;4.654;2022-10-30T10:00:29;17.70;99.90
16907;DHT22;8570;52.380;4.654;2022-10-30T10:05:41;18.00;99.90
16907;DHT22;8570;52.380;4.654;2022-10-30T10:10:48;18.20;99.90
16907;DHT22;8570;52.380;4.654;2022-10-30T10:15:54;18.30;99.90
16907;DHT22;8570;52.380;4.654;2022-10-30T10:21:03;18.60;99.90
16907;DHT22;8570;52.380;4.654;2022-10-30T10:26:15;18.80;99.90
16907;DHT22;8570;52.380;4.654;2022-10-30T10:31:27;19.00;99.90
16907;DHT22;8570;52.380;4.654;2022-10-30T10:36:37;19.30;99.90
16907;DHT22;8570;52.380;4.654;2022-10-30T10:41:56;19.60;99.90
16907;DHT22;8570;52.380;4.654;2022-10-30T10:47:15;19.80;99.90
16907;DHT22;8570;52.380;4.654;2022-10-30T10:52:21;20.10;99.90
16907;DHT22;8570;52.380;4.654;2022-10-30T10:57:28;20.30;99.90
16907;DHT22;8570;52.380;4.654;2022-10-30T11:02:37;20.40;99.90
16907;DHT22;8570;52.380;4.654;2022-10-30T11:07:45;20.50;99.90
16907;DHT22;8570;52.380;4.654;2022-10-30T11:12:49;20.60;99.90
16907;DHT22;8570;52.380;4.654;2022-10-30T11:17:57;20.70;99.90
16907;DHT22;8570;52.380;4.654;2022-10-30T11:23:00;20.70;99.90
16907;DHT22;8570;52.380;4.654;2022-10-30T11:28:05;20.80;99.90
16907;DHT22;8570;52.380;4.654;2022-10-30T11:33:20;20.80;99.90
16907;DHT22;8570;52.380;4.654;2022-10-30T11:38:26;20.70;99.90
16907;DHT22;8570;52.380;4.654;2022-10-30T11:43:29;20.70;99.90
16907;DHT22;8570;52.380;4.654;2022-10-30T11:48:33;20.70;99.90
16907;DHT22;8570;52.380;4.654;2022-10-30T11:53:36;20.80;99.90
16907;DHT22;8570;52.380;4.654;2022-10-30T11:58:44;20.80;99.90
16907;DHT22;8570;52.380;4.654;2022-10-30T12:03:47;20.90;99.90
16907;DHT22;8570;52.380;4.654;2022-10-30T12:08:58;20.90;99.90
16907;DHT22;8570;52.380;4.654;2022-10-30T12:14:02;20.90;99.90
16907;DHT22;8570;52.380;4.654;2022-10-30T12:19:06;20.90;99.90
16907;DHT22;8570;52.380;4.654;2022-10-30T12:24:18;20.80;99.90
16907;DHT22;8570;52.380;4.654;2022-10-30T12:29:26;20.70;99.90
16907;DHT22;8570;52.380;4.654;2022-10-30T12:34:40;20.50;99.90
16907;DHT22;8570;52.380;4.654;2022-10-30T12:39:52;20.30;99.90
16907;DHT22;8570;52.380;4.654;2022-10-30T12:45:06;20.20;99.90
16907;DHT22;8570;52.380;4.654;2022-10-30T12:50:16;20.00;99.90
16907;DHT22;8570;52.380;4.654;2022-10-30T12:55:23;19.90;99.90
16907;DHT22;8570;52.380;4.654;2022-10-30T13:00:30;19.80;99.90
16907;DHT22;8570;52.380;4.654;2022-10-30T13:05:39;19.70;99.90
16907;DHT22;8570;52.380;4.654;2022-10-30T13:10:46;19.60;99.90
16907;DHT22;8570;52.380;4.654;2022-10-30T13:15:53;19.60;99.90
16907;DHT22;8570;52.380;4.654;2022-10-30T13:21:03;19.60;99.90
16907;DHT22;8570;52.380;4.654;2022-10-30T13:26:14;19.50;99.90
16907;DHT22;8570;52.380;4.654;2022-10-30T13:31:27;19.50;99.90
16907;DHT22;8570;52.380;4.654;2022-10-30T13:36:37;19.50;99.90
16907;DHT22;8570;52.380;4.654;2022-10-30T13:41:56;19.60;99.90
16907;DHT22;8570;52.380;4.654;2022-10-30T13:47:12;19.50;99.90
16907;DHT22;8570;52.380;4.654;2022-10-30T13:52:16;19.50;99.90
16907;DHT22;8570;52.380;4.654;2022-10-30T13:57:25;19.50;99.90
16907;DHT22;8570;52.380;4.654;2022-10-30T14:02:42;19.60;99.90
16907;DHT22;8570;52.380;4.654;2022-10-30T14:07:54;19.60;99.90
16907;DHT22;8570;52.380;4.654;2022-10-30T14:13:14;19.60;99.90
16907;DHT22;8570;52.380;4.654;2022-10-30T14:18:43;19.50;99.90
16907;DHT22;8570;52.380;4.654;2022-10-30T14:23:45;19.40;99.90
16907;DHT22;8570;52.380;4.654;2022-10-30T14:28:48;19.30;99.90
16907;DHT22;8570;52.380;4.654;2022-10-30T14:33:52;19.20;99.90
16907;DHT22;8570;52.380;4.654;2022-10-30T14:38:58;19.10;99.90
16907;DHT22;8570;52.380;4.654;2022-10-30T14:49:41;18.70;99.90
16907;DHT22;8570;52.380;4.654;2022-10-30T15:05:41;18.30;99.90
16907;DHT22;8570;52.380;4.654;2022-10-30T15:10:50;18.30;99.90
16907;DHT22;8570;52.380;4.654;2022-10-30T15:15:59;18.20;99.90
16907;DHT22;8570;52.380;4.654;2022-10-30T15:21:05;18.10;99.90
16907;DHT22;8570;52.380;4.654;2022-10-30T15:26:18;18.00;99.90
16907;DHT22;8570;52.380;4.654;2022-10-30T15:31:23;17.90;99.90
16907;DHT22;8570;52.380;4.654;2022-10-30T15:36:28;17.90;99.90
16907;DHT22;8570;52.380;4.654;2022-10-30T15:41:39;17.80;99.90
16907;DHT22;8570;52.380;4.654;2022-10-30T15:46:43;17.80;99.90
16907;DHT22;8570;52.380;4.654;2022-10-30T15:51:47;17.70;99.90
16907;DHT22;8570;52.380;4.654;2022-10-30T15:56:52;17.60;99.90
16907;DHT22;8570;52.380;4.654;2022-10-30T16:01:56;17.50;99.90
16907;DHT22;8570;52.380;4.654;2022-10-30T16:07:01;17.50;99.90
16907;DHT22;8570;52.380;4.654;2022-10-30T16:12:05;17.40;99.90
16907;DHT22;8570;52.380;4.654;2022-10-30T16:17:08;17.40;99.90
16907;DHT22;8570;52.380;4.654;2022-10-30T16:22:17;17.40;99.90
16907;DHT22;8570;52.380;4.654;2022-10-30T16:27:22;17.40;99.90
16907;DHT22;8570;52.380;4.654;2022-10-30T16:32:26;17.40;99.90
16907;DHT22;8570;52.380;4.654;2022-10-30T16:37:34;17.40;99.90
16907;DHT22;8570;52.380;4.654;2022-10-30T16:42:37;17.40;99.90
16907;DHT22;8570;52.380;4.654;2022-10-30T16:47:41;17.40;99.90
16907;DHT22;8570;52.380;4.654;2022-10-30T16:52:46;17.40;99.90
16907;DHT22;8570;52.380;4.654;2022-10-30T16:57:52;17.40;99.90
16907;DHT22;8570;52.380;4.654;2022-10-30T17:02:56;17.40;99.90
16907;DHT22;8570;52.380;4.654;2022-10-30T17:08:02;17.30;99.90
16907;DHT22;8570;52.380;4.654;2022-10-30T17:13:30;17.30;99.90
16907;DHT22;8570;52.380;4.654;2022-10-30T17:18:32;17.30;99.90
16907;DHT22;8570;52.380;4.654;2022-10-30T17:23:35;17.10;99.90
16907;DHT22;8570;52.380;4.654;2022-10-30T17:28:38;17.10;99.90
16907;DHT22;8570;52.380;4.654;2022-10-30T17:33:40;17.10;99.90
16907;DHT22;8570;52.380;4.654;2022-10-30T17:38:43;17.10;99.90
16907;DHT22;8570;52.380;4.654;2022-10-30T17:43:51;17.00;99.90
16907;DHT22;8570;52.380;4.654;2022-10-30T17:48:53;17.00;99.90
16907;DHT22;8570;52.380;4.654;2022-10-30T17:53:58;16.90;99.90
16907;DHT22;8570;52.380;4.654;2022-10-30T17:59:00;16.80;99.90
16907;DHT22;8570;52.380;4.654;2022-10-30T18:04:07;16.90;99.90
16907;DHT22;8570;52.380;4.654;2022-10-30T18:09:13;17.00;99.90
16907;DHT22;8570;52.380;4.654;2022-10-30T18:14:15;16.80;99.90
16907;DHT22;8570;52.380;4.654;2022-10-30T18:19:17;16.70;99.90
16907;DHT22;8570;52.380;4.654;2022-10-30T18:24:20;16.60;99.90
16907;DHT22;8570;52.380;4.654;2022-10-30T18:29:22;16.50;99.90
16907;DHT22;8570;52.380;4.654;2022-10-30T18:34:24;16.40;99.90
16907;DHT22;8570;52.380;4.654;2022-10-30T18:39:27;16.30;99.90
16907;DHT22;8570;52.380;4.654;2022-10-30T18:44:29;16.20;99.90
16907;DHT22;8570;52.380;4.654;2022-10-30T18:49:31;16.10;99.90
16907;DHT22;8570;52.380;4.654;2022-10-30T18:54:35;16.00;99.90
16907;DHT22;8570;52.380;4.654;2022-10-30T19:04:39;15.90;99.90
16907;DHT22;8570;52.380;4.654;2022-10-30T19:09:42;15.80;99.90
16907;DHT22;8570;52.380;4.654;2022-10-30T19:14:44;16.00;99.90
16907;DHT22;8570;52.380;4.654;2022-10-30T19:19:46;16.10;99.90
16907;DHT22;8570;52.380;4.654;2022-10-30T19:24:49;16.00;99.90
16907;DHT22;8570;52.380;4.654;2022-10-30T19:29:51;15.90;99.90
16907;DHT22;8570;52.380;4.654;2022-10-30T19:34:53;15.90;99.90
16907;DHT22;8570;52.380;4.654;2022-10-30T19:39:56;15.80;99.90
16907;DHT22;8570;52.380;4.654;2022-10-30T19:44:58;15.80;99.90
16907;DHT22;8570;52.380;4.654;2022-10-30T19:50:00;15.70;99.90
16907;DHT22;8570;52.380;4.654;2022-10-30T19:55:03;15.60;99.90
16907;DHT22;8570;52.380;4.654;2022-10-30T20:00:09;15.60;99.90
16907;DHT22;8570;52.380;4.654;2022-10-30T20:05:14;15.50;99.90
16907;DHT22;8570;52.380;4.654;2022-10-30T20:10:19;15.40;99.90
16907;DHT22;8570;52.380;4.654;2022-10-30T20:15:21;15.40;99.90
16907;DHT22;8570;52.380;4.654;2022-10-30T20:20:24;15.30;99.90
16907;DHT22;8570;52.380;4.654;2022-10-30T20:25:28;15.30;99.90
16907;DHT22;8570;52.380;4.654;2022-10-30T20:30:30;15.20;99.90
16907;DHT22;8570;52.380;4.654;2022-10-30T20:35:31;15.20;99.90
16907;DHT22;8570;52.380;4.654;2022-10-30T20:40:35;15.10;99.90
16907;DHT22;8570;52.380;4.654;2022-10-30T20:45:36;15.10;99.90
16907;DHT22;8570;52.380;4.654;2022-10-30T20:50:39;15.00;99.90
16907;DHT22;8570;52.380;4.654;2022-10-30T20:55:42;14.90;99.90
16907;DHT22;8570;52.380;4.654;2022-10-30T21:00:44;14.90;99.90
16907;DHT22;8570;52.380;4.654;2022-10-30T21:05:53;14.90;99.90
16907;DHT22;8570;52.380;4.654;2022-10-30T21:10:58;14.80;99.90
16907;DHT22;8570;52.380;4.654;2022-10-30T21:16:02;14.80;99.90
16907;DHT22;8570;52.380;4.654;2022-10-30T21:21:06;14.70;99.90
16907;DHT22;8570;52.380;4.654;2022-10-30T21:26:10;14.60;99.90
16907;DHT22;8570;52.380;4.654;2022-10-30T21:31:12;14.50;99.90
16907;DHT22;8570;52.380;4.654;2022-10-30T21:36:15;14.50;99.90
16907;DHT22;8570;52.380;4.654;2022-10-30T21:41:21;14.40;99.90
16907;DHT22;8570;52.380;4.654;2022-10-30T21:46:26;14.30;99.90
16907;DHT22;8570;52.380;4.654;2022-10-30T21:51:28;14.30;99.90
16907;DHT22;8570;52.380;4.654;2022-10-30T21:56:31;14.20;99.90
16907;DHT22;8570;52.380;4.654;2022-10-30T22:01:35;14.20;99.90
16907;DHT22;8570;52.380;4.654;2022-10-30T22:06:38;14.20;99.90
16907;DHT22;8570;52.380;4.654;2022-10-30T22:11:42;14.20;99.90
16907;DHT22;8570;52.380;4.654;2022-10-30T22:16:46;14.20;99.90
16907;DHT22;8570;52.380;4.654;2022-10-30T22:21:49;14.20;99.90
16907;DHT22;8570;52.380;4.654;2022-10-30T22:26:54;14.10;99.90
16907;DHT22;8570;52.380;4.654;2022-10-30T22:36:58;14.00;99.90
16907;DHT22;8570;52.380;4.654;2022-10-30T22:42:06;13.90;99.90
16907;DHT22;8570;52.380;4.654;2022-10-30T22:47:10;13.90;99.90
16907;DHT22;8570;52.380;4.654;2022-10-30T22:52:11;13.80;99.90
16907;DHT22;8570;52.380;4.654;2022-10-30T22:57:15;13.80;99.90
16907;DHT22;8570;52.380;4.654;2022-10-30T23:02:17;13.70;99.90
16907;DHT22;8570;52.380;4.654;2022-10-30T23:07:18;13.70;99.90
16907;DHT22;8570;52.380;4.654;2022-10-30T23:12:22;13.60;99.90
16907;DHT22;8570;52.380;4.654;2022-10-30T23:17:24;13.60;99.90
16907;DHT22;8570;52.380;4.654;2022-10-30T23:22:27;13.50;99.90
16907;DHT22;8570;52.380;4.654;2022-10-30T23:27:30;13.40;99.90
16907;DHT22;8570;52.380;4.654;2022-10-30T23:32:32;13.30;99.90
16907;DHT22;8570;52.380;4.654;2022-10-30T23:37:34;13.20;99.90
16907;DHT22;8570;52.380;4.654;2022-10-30T23:42:37;13.20;99.90
16907;DHT22;8570;52.380;4.654;2022-10-30T23:47:38;13.10;99.90
16907;DHT22;8570;52.380;4.654;2022-10-30T23:52:40;13.10;99.90
16907;DHT22;8570;52.380;4.654;2022-10-30T23:57:46;13.10;99.90
